In Rescue
 
Open Full Screen Window  High Contrast Mode
Wind Gusting 00 knots
03
March 19, 2019 6:23 PM CDT
Weather Information
Wind Direction
  230 °
Wind Speed
  03 kt (3 mph)
Wind Gust
  00 kt (0 mph)
Altimeter
30.15 in
Visibility
10 SM
Temperature
04° C
39° F
Dewpoint
01° C
34° F
Humidity
81%
1hr Rain Fall
00.00 in.
24hr Rain Fall
00.00 in.
Sky Condition
Clear
VFR

METAR KLJF 192323Z AUTO 23003KT 10SM CLR 04/01 A3015 RMK AO2

FAA Disclaimer: The data displayed is for advisory purposes only and is not to be used for flight planning or operations.